Riverview, FL

12:49 AM EDT on May 07, 2015 (GMT -0400)
Lake St Charles - Kensington | | Change Station
CLOSE
Current Station
Personal Weather Station
Location: Riverview, FL
Elevation: 39 ft
Nearby Weather Stations

Elev 39 ft 27.88 °N, 82.34 °W | Updated 12 minutes ago

Partly Cloudy
Partly Cloudy
72.1 °F
Feels Like 73 °F
N
0.0
Wind Variable Wind from SSW

Today
High -- | Low -- °F
--% Chance of Precip.
Yesterday
High -- | Low -- °F
Precip. -- in
6:45 AM 8:06 PM
Waning Gibbous, 90% visible
Pressure 30.06 in
Visibility 10.0 miles
Clouds Clear
Heat Index 73 °F
Dew Point 64 °F
Humidity 77%
Rainfall 0.00 in
Snow Depth Not available.
UV 0 out of 12
Pollen 5.90 out of 12
Air Quality Not available.
Flu Activity Local Activity
METAR KTPF 070435Z AUTO 05007KT 10SM CLR 23/20 A3006 RMK AO2

More Conditions Fewer Conditions

Pressure 30.06 in
Visibility 10.0 miles
Clouds Clear
Heat Index 73 °F
Dew Point 64 °F
Humidity 77%
Rainfall 0.00 in
Snow Depth Not available.
UV 0 out of 12
Pollen 5.90 out of 12
Air Quality Not available.
Flu Activity Local Activity
METAR KTPF 070435Z AUTO 05007KT 10SM CLR 23/20 A3006 RMK AO2

More Conditions Fewer Conditions

The National Hurricane Center is watching an area of disturbed weather just east of Florida for development. There is a 60% chance of intensification over the next 2 days and this system could become the first named tropical storm of the year. Many atmospheric models take the system close to the coasts of South Carolina and North Carolina later this week, but will have to wait for more information to be more confident in its track.

10-Day Weather Forecast

Almanac

Astronomy

May. 07, 2015 Rise Set
Actual Time
Civil Twilight
Nautical Twilight
Astronomical Twilight
Moon
Length of Visible Light
Length of Day
Tomorrow will be .
, % of the Moon is Illuminated

Today's Extremes

State Highs State Lows

Community

WunderPhotos

Upload Photos

1,819,121 photos uploaded!

WunderBlogs® & News

Nearby

Air Quality

  Air Quality AQ Index Pollutant
Not available.

Snow Depth

Station Depth Elevation

Earthquake Activity

City Distance Mag. Time & Date
Minimum magnitude displayed is 2.5.

Coastal Water Temperatures

Place Temperature

Stations

Nearby Weather Stations

Station Location Temp. Windchill Dew Point Humidity Wind Precip. Elev Updated Type